Time;durP1;ratioP1;P1;durP2;ratioP2;P2;SDS_P1;SDS_P2;PMS_P1;PMS_P2;Temp;Humidity;BMP_temperature;BMP_pressure;BME280_temperature;BME280_humidity;BME280_pressure;Samples;Min_cycle;Max_cycle;Signal;HPM_P1;HPM_P2
2021/09/08 00:00:37;;;;;;;11.90;6.05;;;10.00;63.60;;;;;;4977896;28;20049;-84
2021/09/08 00:03:03;;;;;;;9.73;5.40;;;10.00;63.80;;;;;;4978111;28;20046;-85
2021/09/08 00:05:29;;;;;;;11.15;5.20;;;10.00;63.80;;;;;;4995446;28;20026;-85
2021/09/08 00:07:55;;;;;;;10.63;5.85;;;10.00;63.70;;;;;;4993967;28;20428;-84
2021/09/08 00:10:21;;;;;;;8.57;5.15;;;9.90;63.90;;;;;;4995477;28;20081;-84
2021/09/08 00:12:46;;;;;;;12.95;5.85;;;9.90;63.70;;;;;;4994824;28;20034;-84
2021/09/08 00:15:14;;;;;;;8.85;4.97;;;9.90;63.80;;;;;;4995622;28;20026;-84
2021/09/08 00:17:41;;;;;;;9.88;5.25;;;9.90;63.80;;;;;;4978186;28;20430;-84
2021/09/08 00:20:08;;;;;;;8.80;4.68;;;9.80;63.80;;;;;;4977755;28;20034;-85
2021/09/08 00:22:34;;;;;;;10.00;5.70;;;9.80;63.80;;;;;;4995363;28;20026;-85
2021/09/08 00:25:00;;;;;;;10.18;5.60;;;9.80;64.10;;;;;;4994923;28;20034;-85
2021/09/08 00:27:26;;;;;;;9.57;5.05;;;9.80;64.20;;;;;;4993766;28;20121;-84
2021/09/08 00:29:52;;;;;;;9.55;4.97;;;9.80;63.90;;;;;;4994608;28;20181;-84
2021/09/08 00:32:19;;;;;;;10.27;4.60;;;9.80;63.80;;;;;;4995402;28;20023;-84
2021/09/08 00:34:44;;;;;;;7.32;4.30;;;9.80;64.00;;;;;;4995235;28;20142;-84
2021/09/08 00:37:10;;;;;;;7.82;4.68;;;9.80;64.00;;;;;;4994519;28;20055;-85
2021/09/08 00:39:36;;;;;;;8.07;4.43;;;9.80;63.80;;;;;;4993127;28;20041;-84
2021/09/08 00:42:13;;;;;;;8.18;4.47;;;9.70;63.70;;;;;;4994650;28;20034;-85
2021/09/08 00:44:39;;;;;;;8.65;4.53;;;9.70;63.80;;;;;;4994798;28;20089;-85
2021/09/08 00:47:05;;;;;;;8.55;4.43;;;9.70;64.00;;;;;;4994734;28;20027;-85
2021/09/08 00:49:31;;;;;;;7.55;4.05;;;9.60;64.10;;;;;;4974918;28;20142;-85
2021/09/08 00:52:03;;;;;;;7.47;4.43;;;9.60;64.10;;;;;;4975313;28;20082;-85
2021/09/08 00:54:29;;;;;;;7.75;4.25;;;9.60;64.10;;;;;;4975268;28;20106;-85
2021/09/08 00:56:55;;;;;;;9.90;4.43;;;9.60;64.20;;;;;;4975448;28;20030;-85
2021/09/08 00:59:20;;;;;;;8.57;4.18;;;9.60;64.30;;;;;;4975089;28;20035;-83
2021/09/08 01:01:47;;;;;;;8.57;4.10;;;9.50;64.20;;;;;;4976254;28;20500;-84
2021/09/08 01:04:16;;;;;;;8.30;4.13;;;9.50;64.50;;;;;;4975580;28;20026;-84
2021/09/08 01:06:42;;;;;;;8.60;4.40;;;9.50;64.50;;;;;;4977934;28;20019;-84
2021/09/08 01:09:08;;;;;;;8.60;4.28;;;9.40;64.60;;;;;;4977351;28;20031;-82
2021/09/08 01:11:35;;;;;;;6.53;3.85;;;9.50;64.70;;;;;;4976376;28;20085;-84
2021/09/08 01:14:01;;;;;;;7.78;3.95;;;9.40;64.60;;;;;;4973753;28;20062;-84
2021/09/08 01:16:28;;;;;;;7.82;4.13;;;9.40;64.60;;;;;;4974856;28;20429;-85
2021/09/08 01:18:54;;;;;;;8.35;4.22;;;9.40;64.70;;;;;;4973382;28;20031;-85
2021/09/08 01:21:20;;;;;;;7.40;3.75;;;9.30;64.90;;;;;;4974729;28;20061;-84
2021/09/08 01:23:45;;;;;;;7.30;3.65;;;9.30;64.80;;;;;;4959804;28;20385;-85
2021/09/08 01:26:11;;;;;;;9.95;4.68;;;9.30;64.90;;;;;;4977797;28;20027;-85
2021/09/08 01:28:38;;;;;;;8.02;4.43;;;9.30;64.90;;;;;;4977605;28;20031;-85
2021/09/08 01:31:05;;;;;;;6.57;4.00;;;9.30;65.10;;;;;;4978887;28;20097;-85
2021/09/08 01:33:31;;;;;;;8.18;4.28;;;9.30;65.10;;;;;;4977425;28;20038;-85
2021/09/08 01:35:57;;;;;;;8.73;4.60;;;9.30;65.20;;;;;;4977448;28;20027;-85
2021/09/08 01:38:22;;;;;;;9.30;4.25;;;9.20;65.30;;;;;;4960862;28;20061;-86
2021/09/08 01:40:49;;;;;;;8.95;4.50;;;9.20;65.60;;;;;;4978763;28;20385;-85
2021/09/08 01:43:15;;;;;;;6.85;4.18;;;9.20;65.50;;;;;;4978483;28;20053;-85
2021/09/08 01:45:41;;;;;;;8.73;4.28;;;9.20;65.70;;;;;;4978690;28;20030;-85
2021/09/08 01:48:10;;;;;;;8.10;4.30;;;9.20;65.60;;;;;;4977157;28;20054;-84
2021/09/08 01:50:37;;;;;;;7.20;3.88;;;9.20;65.70;;;;;;4960999;28;20030;-85
2021/09/08 01:53:04;;;;;;;6.82;3.80;;;9.20;65.60;;;;;;4977254;28;20035;-85
2021/09/08 01:55:29;;;;;;;7.00;3.70;;;9.10;65.50;;;;;;4976631;28;20031;-85
2021/09/08 01:57:56;;;;;;;6.93;3.78;;;9.10;65.80;;;;;;4976537;28;20027;-85
2021/09/08 02:00:22;;;;;;;7.50;3.88;;;9.10;65.80;;;;;;4979089;28;20447;-85
2021/09/08 02:02:48;;;;;;;7.07;4.30;;;9.10;65.70;;;;;;4977948;28;20045;-84
2021/09/08 02:05:15;;;;;;;6.15;3.55;;;9.20;65.60;;;;;;4977327;28;20067;-83
2021/09/08 02:07:40;;;;;;;7.47;3.67;;;9.20;65.40;;;;;;4978109;28;20031;-83
2021/09/08 02:10:07;;;;;;;6.55;3.40;;;9.20;65.50;;;;;;4963201;28;20056;-83
2021/09/08 02:12:33;;;;;;;5.82;3.20;;;9.20;65.50;;;;;;4979197;28;20033;-85
2021/09/08 02:14:59;;;;;;;6.07;3.60;;;9.20;65.50;;;;;;4976212;28;20023;-85
2021/09/08 02:17:24;;;;;;;7.72;4.40;;;9.10;65.50;;;;;;4977509;28;20374;-84
2021/09/08 02:19:50;;;;;;;7.50;4.05;;;9.10;65.60;;;;;;4977738;28;20381;-85
2021/09/08 02:22:16;;;;;;;7.00;3.97;;;9.00;65.70;;;;;;4960999;28;20069;-85
2021/09/08 02:24:42;;;;;;;8.05;3.92;;;9.00;65.70;;;;;;4976568;28;20034;-85
2021/09/08 02:27:08;;;;;;;5.65;3.63;;;9.00;65.80;;;;;;4977636;28;20426;-84
2021/09/08 02:29:33;;;;;;;7.30;4.07;;;9.00;65.70;;;;;;4976879;28;20054;-85
2021/09/08 02:31:59;;;;;;;5.80;3.47;;;9.00;65.70;;;;;;4977420;28;20465;-84
2021/09/08 02:34:25;;;;;;;7.10;3.63;;;8.90;65.80;;;;;;4976098;28;20470;-84
2021/09/08 02:36:50;;;;;;;7.47;3.92;;;8.90;65.90;;;;;;4977348;28;20086;-84
2021/09/08 02:39:16;;;;;;;8.48;4.57;;;8.90;66.40;;;;;;4976373;28;20050;-85
2021/09/08 02:41:42;;;;;;;7.65;4.30;;;8.90;66.70;;;;;;4977594;28;20027;-85
2021/09/08 02:44:07;;;;;;;6.65;3.80;;;9.00;66.40;;;;;;4976974;28;20035;-85
2021/09/08 02:46:33;;;;;;;8.98;3.78;;;8.90;66.50;;;;;;4960187;28;20031;-84
2021/09/08 02:48:59;;;;;;;6.25;3.70;;;8.90;66.30;;;;;;4975808;28;20043;-84
2021/09/08 02:51:24;;;;;;;6.45;3.95;;;8.90;66.90;;;;;;4977180;28;20462;-84
2021/09/08 02:53:50;;;;;;;7.00;3.80;;;8.80;66.40;;;;;;4960370;28;20042;-85
2021/09/08 02:56:16;;;;;;;7.95;3.78;;;8.80;66.60;;;;;;4977407;28;20037;-85
2021/09/08 02:58:41;;;;;;;6.90;3.67;;;8.80;66.70;;;;;;4975929;28;20129;-84
2021/09/08 03:01:11;;;;;;;8.68;3.55;;;8.80;66.50;;;;;;4977608;28;20553;-85
2021/09/08 03:03:37;;;;;;;8.15;3.75;;;8.80;66.60;;;;;;4975828;28;20030;-85
2021/09/08 03:06:03;;;;;;;6.28;3.90;;;8.70;66.70;;;;;;4959732;28;20034;-85
2021/09/08 03:08:28;;;;;;;6.88;3.78;;;8.70;66.90;;;;;;4975999;28;20377;-84
2021/09/08 03:10:54;;;;;;;6.95;3.70;;;8.70;67.00;;;;;;4977247;28;20164;-85
2021/09/08 03:13:20;;;;;;;8.77;3.50;;;8.70;67.00;;;;;;4975079;28;20031;-85
2021/09/08 03:15:46;;;;;;;6.03;3.88;;;8.60;67.00;;;;;;4976959;28;20034;-84
2021/09/08 03:18:12;;;;;;;5.75;3.78;;;8.60;67.00;;;;;;4975664;28;20037;-85
2021/09/08 03:20:38;;;;;;;6.30;3.72;;;8.60;67.20;;;;;;4975190;28;20081;-85
2021/09/08 03:23:04;;;;;;;5.90;3.40;;;8.60;67.20;;;;;;4974999;28;20034;-85
2021/09/08 03:25:30;;;;;;;6.05;3.42;;;8.60;67.20;;;;;;4975355;28;20069;-85
2021/09/08 03:27:56;;;;;;;6.47;3.80;;;8.60;67.30;;;;;;4975328;28;20061;-84
2021/09/08 03:30:22;;;;;;;6.82;3.70;;;8.60;68.00;;;;;;4976655;28;20023;-86
2021/09/08 03:32:47;;;;;;;6.78;3.80;;;8.60;67.50;;;;;;4974751;28;20035;-84
2021/09/08 03:35:13;;;;;;;5.90;3.60;;;8.60;67.60;;;;;;4975174;28;20062;-85
2021/09/08 03:37:39;;;;;;;7.05;3.80;;;8.60;67.50;;;;;;4975106;28;20425;-87
2021/09/08 03:40:08;;;;;;;7.82;4.28;;;8.60;67.70;;;;;;4975068;28;20050;-86
2021/09/08 03:42:35;;;;;;;6.03;3.83;;;8.60;67.60;;;;;;4974617;28;20035;-85
2021/09/08 03:45:05;;;;;;;8.15;4.35;;;8.60;67.50;;;;;;4976068;28;20037;-85
2021/09/08 03:47:31;;;;;;;8.55;4.45;;;8.70;67.90;;;;;;4959910;28;20051;-82
2021/09/08 03:49:56;;;;;;;10.10;4.68;;;8.70;67.80;;;;;;4994008;28;20050;-84
2021/09/08 03:52:22;;;;;;;8.63;4.35;;;8.70;67.80;;;;;;4995722;28;20034;-84
2021/09/08 03:54:55;;;;;;;7.10;4.05;;;8.70;67.70;;;;;;4993807;28;20046;-86
2021/09/08 03:57:21;;;;;;;7.80;4.60;;;8.80;67.70;;;;;;4994482;28;20026;-84
2021/09/08 03:59:47;;;;;;;10.20;4.40;;;8.80;67.70;;;;;;4995199;28;20120;-84
2021/09/08 04:02:12;;;;;;;9.88;4.35;;;8.80;67.60;;;;;;4993768;28;20038;-86
2021/09/08 04:04:38;;;;;;;7.20;3.92;;;8.80;67.80;;;;;;4978814;28;20113;-84
2021/09/08 04:07:04;;;;;;;7.68;4.22;;;8.80;67.70;;;;;;4995909;28;20081;-86
2021/09/08 04:09:30;;;;;;;6.68;4.28;;;8.80;67.60;;;;;;4994838;28;20437;-86
2021/09/08 04:11:56;;;;;;;7.95;4.13;;;8.80;68.50;;;;;;4995127;28;20092;-85
2021/09/08 04:14:21;;;;;;;7.80;4.13;;;8.80;67.80;;;;;;4977564;28;20488;-85
2021/09/08 04:16:47;;;;;;;6.70;3.85;;;8.80;68.00;;;;;;4993585;28;20451;-90
2021/09/08 04:19:13;;;;;;;7.75;4.00;;;8.80;67.80;;;;;;4961413;28;20089;-86
2021/09/08 04:21:39;;;;;;;7.90;4.05;;;8.80;67.80;;;;;;4994922;28;20086;-90
2021/09/08 04:24:05;;;;;;;7.25;4.45;;;8.80;67.90;;;;;;4977199;28;20030;-86
2021/09/08 04:26:30;;;;;;;8.52;4.43;;;8.80;68.10;;;;;;4993569;28;20413;-85
2021/09/08 04:28:56;;;;;;;7.97;4.60;;;8.80;68.20;;;;;;4977037;28;20030;-84
2021/09/08 04:31:22;;;;;;;8.52;4.60;;;8.90;68.30;;;;;;4993734;28;20216;-85
2021/09/08 04:33:49;;;;;;;10.38;4.38;;;8.90;68.30;;;;;;4994607;28;20065;-84
2021/09/08 04:36:16;;;;;;;6.80;3.95;;;9.00;68.40;;;;;;4992685;28;20052;-84
2021/09/08 04:38:45;;;;;;;7.63;4.00;;;9.00;68.30;;;;;;4992789;28;20026;-85
2021/09/08 04:41:14;;;;;;;7.38;4.45;;;9.10;68.30;;;;;;4992407;28;20110;-85
2021/09/08 04:43:41;;;;;;;8.48;4.28;;;9.20;68.40;;;;;;4991421;28;20026;-84
2021/09/08 04:46:07;;;;;;;8.50;4.47;;;9.20;68.40;;;;;;4991765;28;20030;-84
2021/09/08 04:48:35;;;;;;;8.20;4.65;;;9.30;68.30;;;;;;5006120;28;20057;-86
2021/09/08 04:51:01;;;;;;;8.55;4.63;;;9.40;68.50;;;;;;5003813;28;20023;-86
2021/09/08 04:53:26;;;;;;;7.75;4.22;;;9.60;68.20;;;;;;4992881;28;20038;-87
2021/09/08 04:55:57;;;;;;;9.00;4.45;;;9.70;68.00;;;;;;4994515;28;20113;-84
2021/09/08 04:58:23;;;;;;;7.45;4.05;;;9.80;67.80;;;;;;4973919;28;20358;-87
2021/09/08 05:00:49;;;;;;;6.93;4.00;;;9.90;67.80;;;;;;4993710;28;20125;-85
2021/09/08 05:03:15;;;;;;;7.57;4.00;;;9.90;67.60;;;;;;4991455;28;20101;-84
2021/09/08 05:05:40;;;;;;;9.13;4.60;;;10.00;67.60;;;;;;4993548;28;20037;-86
2021/09/08 05:08:06;;;;;;;7.13;4.25;;;10.20;67.50;;;;;;4993739;28;20113;-85
2021/09/08 05:10:32;;;;;;;6.97;3.78;;;10.20;67.30;;;;;;4994618;28;20026;-92
2021/09/08 05:12:57;;;;;;;8.90;4.25;;;10.30;67.10;;;;;;4994138;28;20034;-90
2021/09/08 05:15:23;;;;;;;5.88;3.72;;;10.50;67.00;;;;;;4994257;28;20022;-92
2021/09/08 05:17:49;;;;;;;81.22;66.53;;;10.60;66.80;;;;;;4995133;28;20027;-91
2021/09/08 05:20:14;;;;;;;30.42;23.10;;;10.70;66.80;;;;;;4977309;28;20125;-90
2021/09/08 05:22:40;;;;;;;19.25;13.27;;;10.90;66.60;;;;;;4994657;28;20149;-89
2021/09/08 05:25:07;;;;;;;14.30;9.38;;;11.00;66.30;;;;;;4992956;28;20027;-84
2021/09/08 05:27:33;;;;;;;12.43;7.38;;;11.10;66.00;;;;;;4977013;28;20062;-84
2021/09/08 05:29:59;;;;;;;8.43;5.30;;;11.20;65.90;;;;;;4992713;28;20424;-84
2021/09/08 05:32:25;;;;;;;8.40;4.93;;;11.30;65.70;;;;;;4976470;28;20026;-85
2021/09/08 05:34:55;;;;;;;7.93;4.40;;;11.40;65.50;;;;;;4994132;28;20044;-88
2021/09/08 05:37:21;;;;;;;7.43;4.25;;;11.50;65.30;;;;;;4977208;28;20035;-93
2021/09/08 05:39:47;;;;;;;6.43;4.03;;;11.60;65.10;;;;;;4994401;28;20050;-92
2021/09/08 05:42:12;;;;;;;9.10;4.60;;;11.80;65.10;;;;;;4994149;28;20110;-85
2021/09/08 05:44:38;;;;;;;7.47;4.10;;;11.90;64.60;;;;;;4993366;28;20065;-85
2021/09/08 05:47:04;;;;;;;5.97;3.65;;;12.10;64.20;;;;;;4994134;28;20109;-85
2021/09/08 05:49:29;;;;;;;6.00;3.60;;;12.20;63.80;;;;;;4976064;28;20046;-85
2021/09/08 05:51:55;;;;;;;6.85;3.85;;;12.30;63.60;;;;;;4993850;28;20469;-84
2021/09/08 05:54:21;;;;;;;6.05;3.70;;;12.50;63.20;;;;;;4993294;28;20043;-85
2021/09/08 05:56:46;;;;;;;37.28;20.73;;;12.60;62.80;;;;;;4994427;28;20435;-90
2021/09/08 05:59:12;;;;;;;14.75;8.27;;;12.70;62.50;;;;;;4992821;28;20034;-90
2021/09/08 06:01:38;;;;;;;16.55;8.88;;;12.90;62.00;;;;;;4994482;28;20481;-88
2021/09/08 06:04:03;;;;;;;10.20;5.93;;;13.10;61.40;;;;;;4993812;28;20053;-86
2021/09/08 06:06:29;;;;;;;8.20;4.88;;;13.20;61.00;;;;;;4992062;28;20397;-91
2021/09/08 06:08:55;;;;;;;8.35;4.38;;;13.40;60.80;;;;;;4993078;28;20030;-91
2021/09/08 06:11:20;;;;;;;7.53;3.83;;;13.50;60.50;;;;;;4979710;28;20177;-87
2021/09/08 06:13:53;;;;;;;7.90;4.10;;;13.60;60.10;;;;;;4996746;28;20537;-92
2021/09/08 06:16:21;;;;;;;6.72;3.90;;;13.70;59.70;;;;;;4995529;28;20034;-92
2021/09/08 06:18:47;;;;;;;9.93;4.53;;;13.90;59.20;;;;;;4978972;28;20030;-92
2021/09/08 06:21:12;;;;;;;10.52;5.95;;;14.10;58.50;;;;;;4980017;28;20415;-91
2021/09/08 06:23:38;;;;;;;10.23;5.05;;;14.30;58.00;;;;;;4997721;28;20058;-93
2021/09/08 06:26:04;;;;;;;7.90;4.05;;;14.40;57.50;;;;;;4997640;28;20026;-90
2021/09/08 06:28:30;;;;;;;6.40;3.75;;;14.50;57.00;;;;;;4997251;28;20422;-91
2021/09/08 06:30:56;;;;;;;7.32;3.55;;;14.70;56.60;;;;;;4997676;28;20528;-91
2021/09/08 06:33:22;;;;;;;5.60;3.22;;;14.80;56.40;;;;;;4979075;28;20137;-90
2021/09/08 06:35:49;;;;;;;6.18;3.80;;;14.90;56.30;;;;;;4995407;28;20027;-91
2021/09/08 06:38:16;;;;;;;7.32;3.97;;;15.10;55.80;;;;;;4995380;28;20025;-90
2021/09/08 06:40:42;;;;;;;6.40;3.85;;;15.20;55.60;;;;;;4996266;28;20312;-91
2021/09/08 06:43:08;;;;;;;9.45;3.92;;;15.30;55.40;;;;;;4994944;28;20030;-92
2021/09/08 06:45:33;;;;;;;5.05;3.30;;;15.50;55.20;;;;;;4994753;28;20076;-91
2021/09/08 06:47:59;;;;;;;5.80;3.40;;;15.60;55.10;;;;;;5000347;28;20488;-90
2021/09/08 06:50:25;;;;;;;6.88;3.45;;;15.80;54.50;;;;;;4988352;28;20393;-92
2021/09/08 06:52:51;;;;;;;6.18;3.40;;;15.90;54.40;;;;;;5008565;28;20038;-91
2021/09/08 06:55:17;;;;;;;4.57;2.75;;;16.10;53.80;;;;;;5013955;28;20109;-88
2021/09/08 06:57:42;;;;;;;5.10;3.08;;;16.20;53.80;;;;;;5017449;28;20030;-87
2021/09/08 07:00:09;;;;;;;4.95;3.17;;;16.30;53.10;;;;;;5002288;28;20034;-87
2021/09/08 07:02:35;;;;;;;5.13;2.80;;;16.50;52.70;;;;;;5019919;28;20018;-89
2021/09/08 07:05:01;;;;;;;4.68;3.05;;;16.60;52.40;;;;;;5020164;28;20025;-91
2021/09/08 07:07:27;;;;;;;4.35;2.72;;;16.80;51.70;;;;;;5012925;28;20064;-91
2021/09/08 07:09:52;;;;;;;6.45;3.20;;;16.90;51.70;;;;;;4984866;28;20026;-90
2021/09/08 07:12:18;;;;;;;5.65;2.92;;;17.00;51.60;;;;;;5002682;28;20053;-92
2021/09/08 07:14:43;;;;;;;4.95;3.10;;;17.20;51.10;;;;;;4982516;28;20034;-93
2021/09/08 07:17:09;;;;;;;4.00;2.95;;;17.30;50.90;;;;;;4999086;28;20034;-92
2021/09/08 07:19:35;;;;;;;7.78;2.70;;;17.40;50.50;;;;;;4980322;28;20034;-92
2021/09/08 07:22:01;;;;;;;5.25;3.03;;;17.40;50.20;;;;;;4994930;28;20030;-91
2021/09/08 07:24:26;;;;;;;4.70;2.63;;;17.60;49.40;;;;;;4997861;28;20042;-92
2021/09/08 07:26:56;;;;;;;5.10;2.80;;;17.60;49.30;;;;;;4979515;28;20429;-93
2021/09/08 07:29:22;;;;;;;6.40;2.73;;;17.70;49.10;;;;;;4996818;28;20095;-93
2021/09/08 07:31:48;;;;;;;5.85;3.22;;;17.80;48.90;;;;;;4995825;28;20261;-92
2021/09/08 07:34:14;;;;;;;4.97;3.13;;;18.00;49.00;;;;;;4995600;28;20485;-92
2021/09/08 07:36:40;;;;;;;5.22;2.78;;;18.20;49.20;;;;;;4997091;28;20023;-91
2021/09/08 07:39:05;;;;;;;4.35;2.83;;;18.50;49.70;;;;;;4996839;28;20042;-92
2021/09/08 07:41:31;;;;;;;4.30;2.90;;;18.90;49.30;;;;;;4996765;28;20106;-91
2021/09/08 07:43:57;;;;;;;4.00;2.78;;;19.30;48.90;;;;;;4979452;28;20516;-91
2021/09/08 07:46:22;;;;;;;5.20;2.83;;;19.60;48.90;;;;;;4996184;28;20077;-91
2021/09/08 07:48:48;;;;;;;3.50;2.70;;;19.90;47.60;;;;;;4996531;28;20104;-92
2021/09/08 07:51:14;;;;;;;4.78;3.03;;;20.20;47.50;;;;;;4996510;28;20035;-92
2021/09/08 07:53:39;;;;;;;8.30;2.97;;;20.60;46.50;;;;;;4979211;28;20044;-92
2021/09/08 07:56:05;;;;;;;4.00;2.63;;;20.90;45.70;;;;;;4996641;28;20030;-92
2021/09/08 07:58:31;;;;;;;4.38;2.30;;;21.20;45.70;;;;;;4996777;28;20061;-92
2021/09/08 08:00:57;;;;;;;3.33;2.22;;;21.60;44.90;;;;;;4996462;28;20034;-90
2021/09/08 08:03:23;;;;;;;3.47;2.25;;;21.90;43.50;;;;;;4997081;28;20034;-92
2021/09/08 08:05:49;;;;;;;2.88;2.08;;;22.20;42.10;;;;;;4982535;28;20049;-91
2021/09/08 08:08:15;;;;;;;3.83;2.25;;;22.50;41.70;;;;;;4996476;28;20029;-92
2021/09/08 08:10:41;;;;;;;2.78;2.10;;;22.70;41.10;;;;;;4995991;28;20026;-92
2021/09/08 08:13:06;;;;;;;3.38;2.03;;;22.90;40.50;;;;;;4995326;28;20491;-91
2021/09/08 08:15:32;;;;;;;7.70;2.20;;;23.10;39.70;;;;;;4996452;28;20026;-92
2021/09/08 08:17:58;;;;;;;2.65;2.33;;;23.30;39.50;;;;;;4997360;28;20034;-92
2021/09/08 08:20:24;;;;;;;4.20;2.53;;;23.50;39.30;;;;;;4996049;28;20552;-93
2021/09/08 08:22:50;;;;;;;4.65;2.05;;;23.70;38.50;;;;;;4996213;28;20028;-93
2021/09/08 08:25:19;;;;;;;2.97;1.88;;;23.90;38.50;;;;;;4995646;28;20026;-92
2021/09/08 08:27:45;;;;;;;3.50;2.00;;;24.10;38.30;;;;;;4995823;28;20019;-93
2021/09/08 08:30:13;;;;;;;3.88;2.20;;;24.30;38.80;;;;;;4995681;28;20058;-93
2021/09/08 08:32:39;;;;;;;2.75;1.85;;;24.60;38.20;;;;;;4978323;28;20037;-92
2021/09/08 08:35:05;;;;;;;5.30;2.22;;;24.70;37.40;;;;;;4978781;28;20027;-91
2021/09/08 08:37:31;;;;;;;2.45;2.00;;;24.90;36.70;;;;;;4997615;28;20109;-92
2021/09/08 08:39:57;;;;;;;3.28;2.08;;;24.90;37.40;;;;;;4979113;28;20092;-92
2021/09/08 08:42:27;;;;;;;2.85;1.95;;;25.10;37.20;;;;;;4996042;28;20065;-92
2021/09/08 08:44:53;;;;;;;;;;;25.40;37.30;;;;;;4995219;28;20389;-91
2021/09/08 08:47:20;;;;;;;2.95;2.30;;;25.40;36.80;;;;;;4995833;28;19905;-93
2021/09/08 08:49:47;;;;;;;2.03;1.85;;;25.80;37.60;;;;;;4978666;28;20026;-93
2021/09/08 08:52:14;;;;;;;2.70;2.10;;;26.10;37.30;;;;;;4998128;28;20077;-94
2021/09/08 08:54:40;;;;;;;3.33;2.20;;;26.40;36.90;;;;;;4998919;28;20121;-93
2021/09/08 08:57:10;;;;;;;3.75;2.70;;;26.70;36.40;;;;;;4998471;28;20481;-94
2021/09/08 08:59:36;;;;;;;3.78;2.30;;;26.90;34.60;;;;;;4981024;28;20042;-92
2021/09/08 09:02:26;;;;;;;3.53;2.70;;;26.80;34.50;;;;;;5000417;28;20540;-92
2021/09/08 09:04:56;;;;;;;;;;;26.80;33.40;;;;;;4986086;28;20030;-92
2021/09/08 09:07:26;;;;;;;3.85;2.25;;;26.60;35.00;;;;;;4999774;28;19945;-92
2021/09/08 09:10:04;;;;;;;3.20;2.10;;;26.90;35.00;;;;;;4983539;28;20022;-93
2021/09/08 09:12:34;;;;;;;5.10;2.50;;;27.10;35.00;;;;;;4978618;28;20026;-92
2021/09/08 09:15:07;;;;;;;4.45;2.53;;;27.30;34.30;;;;;;4978237;28;20043;-92
2021/09/08 09:17:35;;;;;;;4.07;2.50;;;27.40;34.20;;;;;;4996465;28;20026;-93
2021/09/08 09:20:07;;;;;;;3.55;2.80;;;27.50;34.00;;;;;;4977755;28;20030;-93
2021/09/08 09:22:43;;;;;;;3.35;2.38;;;27.60;34.20;;;;;;4995663;28;20026;-93
2021/09/08 09:25:17;;;;;;;3.85;2.40;;;27.70;33.40;;;;;;4979383;28;20026;-92
2021/09/08 09:28:16;;;;;;;3.15;2.13;;;27.80;34.00;;;;;;4996578;28;20077;-93
2021/09/08 09:30:42;;;;;;;3.88;2.50;;;27.90;31.60;;;;;;4963322;28;20043;-94
2021/09/08 09:33:10;;;;;;;4.53;2.40;;;28.00;33.90;;;;;;4978177;28;20125;-93
2021/09/08 09:35:36;;;;;;;5.28;2.35;;;28.30;33.40;;;;;;4995665;28;20030;-94
2021/09/08 09:38:07;;;;;;;4.45;2.35;;;28.50;33.00;;;;;;4978143;28;20511;-92
2021/09/08 09:40:35;;;;;;;5.20;2.38;;;28.50;32.60;;;;;;4995798;28;20019;-93
2021/09/08 09:43:09;;;;;;;5.15;2.70;;;28.50;33.10;;;;;;4979058;28;20519;-92
2021/09/08 09:45:38;;;;;;;2.92;2.35;;;28.70;31.50;;;;;;4981964;28;20027;-94
2021/09/08 09:48:05;;;;;;;2.50;1.98;;;28.40;31.80;;;;;;5001649;28;20493;-92
2021/09/08 09:50:31;;;;;;;2.50;1.90;;;28.30;32.40;;;;;;5002057;28;20065;-93
2021/09/08 09:52:57;;;;;;;3.08;2.03;;;28.60;32.40;;;;;;5002060;28;20381;-92
2021/09/08 09:55:25;;;;;;;2.50;1.98;;;28.70;32.60;;;;;;5007565;28;20038;-90
2021/09/08 09:57:55;;;;;;;2.88;2.20;;;28.90;32.50;;;;;;5014061;28;20030;-90
2021/09/08 10:00:21;;;;;;;3.30;2.20;;;29.20;32.40;;;;;;5016927;28;20023;-93
2021/09/08 10:02:48;;;;;;;2.97;2.10;;;29.50;32.70;;;;;;4999553;28;20073;-93
2021/09/08 10:05:17;;;;;;;2.75;2.00;;;29.80;32.40;;;;;;4998151;28;20029;-93
2021/09/08 10:07:43;;;;;;;3.35;2.10;;;30.20;31.40;;;;;;4999753;28;20022;-92
2021/09/08 10:10:14;;;;;;;2.92;2.10;;;30.20;30.50;;;;;;5000113;28;20097;-92
2021/09/08 10:13:06;;;;;;;3.42;2.45;;;30.10;31.00;;;;;;4998351;28;20030;-92
2021/09/08 10:15:32;;;;;;;2.72;2.15;;;30.20;29.70;;;;;;4999366;28;20058;-93
2021/09/08 10:18:11;;;;;;;5.28;2.45;;;30.20;31.10;;;;;;4999337;28;20057;-92
2021/09/08 10:20:37;;;;;;;2.87;2.30;;;30.40;30.70;;;;;;4998833;28;20037;-92
2021/09/08 10:23:09;;;;;;;3.97;2.83;;;30.50;31.50;;;;;;4999035;28;20291;-93
2021/09/08 10:25:37;;;;;;;4.97;2.70;;;30.60;29.60;;;;;;5000555;28;20053;-93
2021/09/08 10:28:04;;;;;;;3.85;2.42;;;30.60;29.80;;;;;;4999383;28;20050;-93
2021/09/08 10:30:31;;;;;;;4.95;2.30;;;30.50;30.00;;;;;;4998713;28;20031;-93
2021/09/08 10:32:57;;;;;;;3.17;2.53;;;30.50;30.10;;;;;;4981487;28;20153;-94
2021/09/08 10:35:23;;;;;;;3.05;2.30;;;30.40;30.00;;;;;;5000519;28;20482;-93
2021/09/08 10:37:53;;;;;;;3.55;2.63;;;30.50;29.60;;;;;;4981315;28;20495;-93
2021/09/08 10:40:22;;;;;;;3.17;2.33;;;30.50;29.40;;;;;;4999715;28;20420;-92
2021/09/08 10:43:00;;;;;;;3.67;2.40;;;30.30;29.60;;;;;;4998307;28;20033;-93
2021/09/08 10:45:32;;;;;;;3.65;2.40;;;30.30;29.60;;;;;;4996280;28;20077;-92
2021/09/08 10:48:00;;;;;;;4.05;2.10;;;30.30;29.20;;;;;;4997936;28;20054;-93
2021/09/08 10:50:38;;;;;;;2.95;2.20;;;30.30;29.60;;;;;;4998144;28;20030;-92
2021/09/08 10:53:24;;;;;;;3.20;2.50;;;30.60;29.00;;;;;;5006933;28;20125;-93
2021/09/08 10:55:51;;;;;;;3.40;2.40;;;30.70;28.80;;;;;;5002398;28;20082;-93
2021/09/08 10:58:21;;;;;;;3.75;2.70;;;30.60;29.30;;;;;;4999672;28;20023;-92
2021/09/08 11:00:49;;;;;;;4.47;2.08;;;30.50;29.00;;;;;;4981538;28;20045;-92
2021/09/08 11:03:15;;;;;;;2.67;2.08;;;30.50;29.00;;;;;;5001739;28;20030;-93
2021/09/08 11:05:59;;;;;;;3.90;2.38;;;30.60;29.10;;;;;;5002600;28;20080;-94
2021/09/08 11:08:33;;;;;;;3.65;2.30;;;30.70;29.10;;;;;;5002267;28;20031;-94
2021/09/08 11:11:13;;;;;;;3.17;2.33;;;30.90;29.50;;;;;;4981056;28;20427;-92
2021/09/08 11:13:40;;;;;;;4.65;2.95;;;31.20;29.10;;;;;;4980728;28;20031;-91
2021/09/08 11:16:21;;;;;;;2.72;2.20;;;31.60;28.80;;;;;;4999535;28;20023;-92
2021/09/08 11:18:47;;;;;;;2.67;2.40;;;31.70;27.90;;;;;;4997464;28;20031;-92
2021/09/08 11:21:15;;;;;;;4.00;2.30;;;31.80;29.00;;;;;;4997713;28;20034;-94
2021/09/08 11:23:42;;;;;;;3.78;2.58;;;32.00;28.60;;;;;;4996791;28;20050;-93
2021/09/08 11:26:10;;;;;;;3.28;2.38;;;32.10;28.60;;;;;;4997349;28;20038;-92
2021/09/08 11:28:36;;;;;;;4.95;2.35;;;32.20;28.80;;;;;;4995696;28;20195;-92
2021/09/08 11:31:17;;;;;;;3.33;2.10;;;32.40;28.80;;;;;;4996913;28;20053;-92
2021/09/08 11:33:46;;;;;;;4.75;2.38;;;32.80;28.50;;;;;;4996703;28;20389;-92
2021/09/08 11:36:19;;;;;;;4.35;2.40;;;32.80;28.10;;;;;;4996895;28;20030;-91
2021/09/08 11:38:48;;;;;;;5.95;2.50;;;32.80;28.20;;;;;;4997234;28;20484;-92
2021/09/08 11:41:15;;;;;;;2.60;2.10;;;32.90;28.10;;;;;;4979360;28;20126;-92
2021/09/08 11:43:48;;;;;;;2.70;2.00;;;33.00;28.20;;;;;;4996546;28;20042;-93
2021/09/08 11:46:22;;;;;;;3.03;2.33;;;33.00;28.20;;;;;;4996830;28;20041;-93
2021/09/08 11:49:02;;;;;;;4.65;2.42;;;33.00;28.20;;;;;;4962818;28;20050;-92
2021/09/08 11:51:27;;;;;;;4.97;2.60;;;33.10;28.20;;;;;;4996728;28;20102;-93
2021/09/08 11:53:55;;;;;;;3.28;2.40;;;33.20;28.30;;;;;;4979016;28;20062;-92
2021/09/08 11:56:23;;;;;;;3.13;2.30;;;33.70;28.10;;;;;;4979062;28;20026;-92
2021/09/08 11:58:55;;;;;;;3.47;2.35;;;33.80;28.00;;;;;;4978909;28;20512;-92
2021/09/08 12:01:22;;;;;;;4.32;2.45;;;34.00;27.40;;;;;;4978978;28;20058;-93
2021/09/08 12:03:51;;;;;;;6.32;2.60;;;34.00;27.30;;;;;;4995047;28;20030;-94
2021/09/08 12:06:21;;;;;;;3.40;2.35;;;33.90;27.10;;;;;;4996055;28;20038;-91
2021/09/08 12:08:57;;;;;;;4.22;2.47;;;33.60;27.40;;;;;;4978187;28;20041;-91
2021/09/08 12:11:47;;;;;;;2.88;2.20;;;33.60;27.20;;;;;;4996144;28;20034;-92
2021/09/08 12:14:31;;;;;;;2.40;2.05;;;33.50;26.90;;;;;;4995709;28;20054;-91
2021/09/08 12:17:03;;;;;;;2.92;2.15;;;33.30;26.40;;;;;;4995891;28;20027;-94
2021/09/08 12:19:34;;;;;;;4.00;2.70;;;33.30;27.40;;;;;;4995923;28;20026;-91
2021/09/08 12:22:12;;;;;;;2.95;2.60;;;33.50;27.70;;;;;;4996107;28;20093;-90
2021/09/08 12:24:46;;;;;;;3.13;2.35;;;33.90;27.00;;;;;;4978816;28;20038;-91
2021/09/08 12:28:02;;;;;;;3.97;2.40;;;34.20;27.10;;;;;;4994966;28;20026;-93
2021/09/08 12:30:28;;;;;;;3.00;2.60;;;34.20;26.70;;;;;;4963066;28;20046;-94
2021/09/08 12:32:55;;;;;;;4.40;2.55;;;34.20;27.40;;;;;;4995843;28;20030;-92
2021/09/08 12:35:43;;;;;;;3.80;2.70;;;34.30;27.40;;;;;;4996024;28;20026;-92
2021/09/08 12:38:41;;;;;;;3.27;2.40;;;34.50;26.60;;;;;;4978875;28;20034;-90
2021/09/08 12:41:31;;;;;;;2.97;2.35;;;34.40;26.40;;;;;;4999613;28;20154;-91
2021/09/08 12:44:00;;;;;;;4.88;2.58;;;34.20;26.40;;;;;;4978314;28;20096;-92
2021/09/08 12:46:46;;;;;;;3.10;2.40;;;34.10;27.70;;;;;;4977547;28;20026;-90
2021/09/08 12:49:20;;;;;;;2.80;2.50;;;34.20;26.30;;;;;;4995890;28;20057;-92
2021/09/08 12:51:47;;;;;;;4.72;2.25;;;34.50;27.10;;;;;;4995300;28;20030;-91
2021/09/08 12:54:14;;;;;;;3.65;2.40;;;34.60;26.80;;;;;;4977899;28;20034;-92